Time;durP1;ratioP1;P1;durP2;ratioP2;P2;SDS_P1;SDS_P2;PMS_P1;PMS_P2;Temp;Humidity;BMP_temperature;BMP_pressure;BME280_temperature;BME280_humidity;BME280_pressure;Samples;Min_cycle;Max_cycle;Signal;HPM_P1;HPM_P2
2023/05/28 00:00:10;;;;;;;4.82;3.67;;;;;;;;;;5093235;28;20051;-65
2023/05/28 00:02:36;;;;;;;5.57;3.90;;;;;;;;;;5092949;28;20028;-64
2023/05/28 00:05:01;;;;;;;5.72;3.80;;;;;;;;;;5092880;28;20039;-64
2023/05/28 00:07:28;;;;;;;5.30;3.70;;;;;;;;;;5093045;28;20035;-65
2023/05/28 00:09:55;;;;;;;5.32;4.07;;;;;;;;;;5093175;28;20376;-65
2023/05/28 00:12:21;;;;;;;4.53;3.90;;;;;;;;;;5093046;28;20081;-65
2023/05/28 00:14:47;;;;;;;6.90;3.55;;;;;;;;;;5092732;28;20028;-65
2023/05/28 00:17:14;;;;;;;5.95;3.95;;;;;;;;;;5092678;28;20024;-64
2023/05/28 00:19:40;;;;;;;5.68;4.20;;;;;;;;;;5092719;28;20028;-64
2023/05/28 00:22:06;;;;;;;5.55;4.10;;;;;;;;;;5092593;28;20031;-64
2023/05/28 00:24:31;;;;;;;6.00;4.13;;;;;;;;;;5092922;28;20483;-65
2023/05/28 00:26:57;;;;;;;5.45;3.95;;;;;;;;;;5092677;28;20024;-64
2023/05/28 00:29:24;;;;;;;5.20;4.13;;;;;;;;;;5092909;28;20031;-60
2023/05/28 00:31:51;;;;;;;4.72;3.92;;;;;;;;;;5092803;28;20024;-61
2023/05/28 00:34:16;;;;;;;4.38;3.97;;;;;;;;;;5092494;28;20495;-60
2023/05/28 00:36:42;;;;;;;7.15;3.50;;;;;;;;;;5092456;28;20063;-60
2023/05/28 00:39:07;;;;;;;4.03;3.38;;;;;;;;;;5092228;28;20093;-60
2023/05/28 00:41:35;;;;;;;3.72;3.42;;;;;;;;;;5092792;28;20154;-60
2023/05/28 00:44:01;;;;;;;6.25;3.67;;;;;;;;;;5091297;28;20108;-60
2023/05/28 00:46:26;;;;;;;4.30;3.85;;;;;;;;;;5091317;28;20107;-61
2023/05/28 00:48:52;;;;;;;5.78;3.92;;;;;;;;;;5091405;28;20106;-60
2023/05/28 00:51:18;;;;;;;6.32;3.90;;;;;;;;;;5091179;28;20420;-60
2023/05/28 00:53:44;;;;;;;4.50;4.00;;;;;;;;;;5089899;28;20016;-60
2023/05/28 00:56:11;;;;;;;4.78;3.70;;;;;;;;;;5072668;28;20468;-60
2023/05/28 00:58:39;;;;;;;4.30;3.60;;;;;;;;;;5072355;28;20071;-60
2023/05/28 01:01:06;;;;;;;5.57;3.80;;;;;;;;;;5075882;28;20391;-64
2023/05/28 01:03:32;;;;;;;5.55;3.90;;;;;;;;;;5076141;28;20103;-64
2023/05/28 01:06:01;;;;;;;4.70;3.45;;;;;;;;;;5076104;28;20108;-64
2023/05/28 01:08:27;;;;;;;5.55;3.65;;;;;;;;;;5094218;28;20109;-64
2023/05/28 01:10:53;;;;;;;5.10;4.00;;;;;;;;;;5095120;28;20034;-65
2023/05/28 01:13:18;;;;;;;4.57;3.80;;;;;;;;;;5095875;28;20530;-65
2023/05/28 01:15:45;;;;;;;6.75;4.45;;;;;;;;;;5096220;28;20020;-64
2023/05/28 01:18:11;;;;;;;4.30;3.90;;;;;;;;;;5096152;28;20491;-64
2023/05/28 01:20:37;;;;;;;6.82;4.53;;;;;;;;;;5095970;28;20077;-64
2023/05/28 01:23:10;;;;;;;4.35;3.67;;;;;;;;;;5095390;28;20024;-65
2023/05/28 01:25:38;;;;;;;4.82;4.03;;;;;;;;;;5095346;28;20032;-64
2023/05/28 01:28:13;;;;;;;3.70;3.33;;;;;;;;;;5095858;28;20592;-64
2023/05/28 01:30:40;;;;;;;3.75;3.45;;;;;;;;;;5096173;28;20455;-60
2023/05/28 01:33:06;;;;;;;5.07;3.80;;;;;;;;;;5095842;28;20016;-60
2023/05/28 01:35:32;;;;;;;5.72;3.70;;;;;;;;;;5096079;28;20425;-60
2023/05/28 01:38:01;;;;;;;4.45;4.05;;;;;;;;;;5095391;28;20047;-60
2023/05/28 01:40:27;;;;;;;4.88;3.50;;;;;;;;;;5111401;28;20051;-60
2023/05/28 01:42:55;;;;;;;4.60;3.50;;;;;;;;;;5095645;28;20028;-60
2023/05/28 01:45:22;;;;;;;4.13;3.72;;;;;;;;;;5095944;28;20031;-64
2023/05/28 01:47:48;;;;;;;5.38;3.78;;;;;;;;;;5095467;28;20027;-65
2023/05/28 01:50:14;;;;;;;5.78;3.83;;;;;;;;;;5095590;28;20032;-64
2023/05/28 01:52:40;;;;;;;4.38;3.95;;;;;;;;;;5095418;28;20034;-64
2023/05/28 01:55:08;;;;;;;4.28;3.85;;;;;;;;;;5095454;28;20032;-65
2023/05/28 01:57:34;;;;;;;5.20;3.80;;;;;;;;;;5095346;28;20024;-64
2023/05/28 02:00:00;;;;;;;4.82;3.70;;;;;;;;;;5095343;28;20055;-60
2023/05/28 02:02:26;;;;;;;4.88;4.05;;;;;;;;;;5095548;28;20083;-60
2023/05/28 02:04:55;;;;;;;5.97;3.60;;;;;;;;;;5095341;28;20016;-60
2023/05/28 02:07:21;;;;;;;6.22;4.15;;;;;;;;;;5095189;28;20039;-60
2023/05/28 02:09:46;;;;;;;3.80;3.38;;;;;;;;;;5095114;28;20028;-60
2023/05/28 02:12:12;;;;;;;4.72;3.67;;;;;;;;;;5095017;28;20437;-60
2023/05/28 02:14:37;;;;;;;4.47;3.55;;;;;;;;;;5095435;28;20043;-60
2023/05/28 02:17:03;;;;;;;4.47;3.55;;;;;;;;;;5095342;28;20558;-64
2023/05/28 02:19:29;;;;;;;4.43;3.72;;;;;;;;;;5095197;28;20032;-64
2023/05/28 02:21:55;;;;;;;4.80;3.70;;;;;;;;;;5094959;28;20024;-64
2023/05/28 02:24:22;;;;;;;5.00;3.30;;;;;;;;;;5094978;28;20043;-64
2023/05/28 02:26:47;;;;;;;4.38;3.42;;;;;;;;;;5095040;28;20035;-64
2023/05/28 02:29:13;;;;;;;4.55;3.58;;;;;;;;;;5094895;28;20417;-64
2023/05/28 02:31:38;;;;;;;5.15;3.75;;;;;;;;;;5094994;28;20113;-60
2023/05/28 02:34:04;;;;;;;4.00;3.60;;;;;;;;;;5095006;28;20039;-60
2023/05/28 02:36:30;;;;;;;4.10;3.42;;;;;;;;;;5094618;28;20026;-60
2023/05/28 02:38:55;;;;;;;5.38;3.63;;;;;;;;;;5094336;28;20151;-60
2023/05/28 02:41:21;;;;;;;4.65;3.67;;;;;;;;;;5094577;28;20039;-60
2023/05/28 02:43:46;;;;;;;3.92;3.53;;;;;;;;;;5094847;28;20078;-60
2023/05/28 02:46:12;;;;;;;5.35;3.60;;;;;;;;;;5094422;28;20028;-64
2023/05/28 02:48:38;;;;;;;4.75;3.58;;;;;;;;;;5094383;28;20077;-64
2023/05/28 02:51:04;;;;;;;4.80;3.53;;;;;;;;;;5094271;28;20028;-64
2023/05/28 02:53:33;;;;;;;5.18;3.70;;;;;;;;;;5094209;28;20119;-64
2023/05/28 02:55:59;;;;;;;3.70;3.40;;;;;;;;;;5094219;28;20028;-62
2023/05/28 02:58:25;;;;;;;6.07;3.60;;;;;;;;;;5094385;28;20119;-64
2023/05/28 03:00:50;;;;;;;3.85;3.42;;;;;;;;;;5094432;28;20024;-60
2023/05/28 03:03:16;;;;;;;3.88;3.38;;;;;;;;;;5094445;28;20418;-60
2023/05/28 03:05:41;;;;;;;4.35;3.60;;;;;;;;;;5093965;28;20059;-60
2023/05/28 03:08:07;;;;;;;6.15;3.88;;;;;;;;;;5094312;28;20064;-60
2023/05/28 03:10:33;;;;;;;4.63;3.83;;;;;;;;;;5094247;28;20039;-60
2023/05/28 03:12:59;;;;;;;3.58;3.00;;;;;;;;;;5093983;28;20020;-60
2023/05/28 03:15:26;;;;;;;3.50;3.20;;;;;;;;;;5094215;28;20028;-60
2023/05/28 03:17:53;;;;;;;4.10;3.45;;;;;;;;;;5093765;28;20482;-63
2023/05/28 03:20:19;;;;;;;3.80;3.40;;;;;;;;;;5093801;28;20039;-64
2023/05/28 03:22:49;;;;;;;3.42;3.13;;;;;;;;;;5093273;28;20016;-64
2023/05/28 03:25:15;;;;;;;3.92;3.13;;;;;;;;;;5093737;28;20024;-64
2023/05/28 03:27:40;;;;;;;3.70;3.33;;;;;;;;;;5093746;28;20538;-64
2023/05/28 03:30:09;;;;;;;5.45;3.85;;;;;;;;;;5093592;28;20034;-64
2023/05/28 03:32:35;;;;;;;4.43;3.65;;;;;;;;;;5093675;28;20584;-60
2023/05/28 03:35:00;;;;;;;4.22;3.60;;;;;;;;;;5093520;28;20064;-60
2023/05/28 03:37:26;;;;;;;3.72;3.28;;;;;;;;;;5093504;28;20054;-60
2023/05/28 03:39:53;;;;;;;3.58;3.28;;;;;;;;;;5093696;28;20054;-60
2023/05/28 03:42:19;;;;;;;3.45;3.15;;;;;;;;;;5093504;28;20510;-60
2023/05/28 03:44:44;;;;;;;4.65;3.78;;;;;;;;;;5093301;28;20060;-60
2023/05/28 03:47:12;;;;;;;3.83;3.40;;;;;;;;;;5093320;28;20035;-65
2023/05/28 03:49:37;;;;;;;4.35;3.55;;;;;;;;;;5093230;28;20032;-61
2023/05/28 03:52:03;;;;;;;4.45;3.55;;;;;;;;;;5093477;28;20024;-64
2023/05/28 03:54:29;;;;;;;4.22;3.22;;;;;;;;;;5093148;28;20062;-64
2023/05/28 03:56:54;;;;;;;5.28;3.97;;;;;;;;;;5093122;28;20032;-63
2023/05/28 03:59:20;;;;;;;5.45;3.40;;;;;;;;;;5093008;28;20032;-65
2023/05/28 04:01:45;;;;;;;5.78;3.40;;;;;;;;;;5093136;28;20024;-60
2023/05/28 04:04:11;;;;;;;4.68;3.25;;;;;;;;;;5092939;28;20020;-60
2023/05/28 04:06:36;;;;;;;3.65;3.28;;;;;;;;;;5093007;28;20026;-60
2023/05/28 04:09:02;;;;;;;3.47;3.15;;;;;;;;;;5091743;28;20356;-60
2023/05/28 04:11:29;;;;;;;3.72;3.10;;;;;;;;;;5092958;28;20020;-60
2023/05/28 04:13:55;;;;;;;4.38;3.30;;;;;;;;;;5092874;28;20111;-60
2023/05/28 04:16:22;;;;;;;4.00;3.47;;;;;;;;;;5093173;28;20048;-60
2023/05/28 04:18:49;;;;;;;3.63;3.20;;;;;;;;;;5092550;28;20043;-60
2023/05/28 04:21:15;;;;;;;4.53;3.53;;;;;;;;;;5093005;28;20032;-60
2023/05/28 04:23:40;;;;;;;4.88;3.20;;;;;;;;;;5092884;28;20028;-60
2023/05/28 04:26:06;;;;;;;3.58;3.10;;;;;;;;;;5092620;28;20047;-60
2023/05/28 04:28:33;;;;;;;4.07;3.35;;;;;;;;;;5092584;28;20037;-60
2023/05/28 04:31:01;;;;;;;3.67;3.38;;;;;;;;;;5092577;28;20547;-60
2023/05/28 04:33:30;;;;;;;4.78;3.50;;;;;;;;;;5092455;28;20035;-64
2023/05/28 04:35:59;;;;;;;3.17;2.83;;;;;;;;;;5092626;28;20039;-65
2023/05/28 04:38:31;;;;;;;4.23;3.30;;;;;;;;;;5092376;28;20185;-65
2023/05/28 04:40:57;;;;;;;4.05;3.35;;;;;;;;;;5092630;28;20257;-66
2023/05/28 04:43:23;;;;;;;4.85;3.38;;;;;;;;;;5092743;28;20410;-65
2023/05/28 04:45:53;;;;;;;3.78;3.33;;;;;;;;;;5092527;28;20024;-66
2023/05/28 04:48:18;;;;;;;4.17;3.23;;;;;;;;;;5092754;28;20032;-64
2023/05/28 04:50:44;;;;;;;4.03;3.30;;;;;;;;;;5092484;28;20047;-64
2023/05/28 04:53:10;;;;;;;5.95;3.38;;;;;;;;;;5092395;28;20103;-64
2023/05/28 04:55:35;;;;;;;3.83;3.25;;;;;;;;;;5092419;28;20036;-64
2023/05/28 04:58:01;;;;;;;4.80;3.38;;;;;;;;;;5092290;28;20032;-63
2023/05/28 05:00:27;;;;;;;4.18;3.15;;;;;;;;;;5092453;28;20024;-64
2023/05/28 05:02:53;;;;;;;4.40;3.15;;;;;;;;;;5092635;28;20470;-60
2023/05/28 05:05:19;;;;;;;3.80;3.13;;;;;;;;;;5092679;28;20521;-60
2023/05/28 05:07:45;;;;;;;4.47;3.35;;;;;;;;;;5092556;28;20032;-60
2023/05/28 05:10:11;;;;;;;4.72;3.30;;;;;;;;;;5092290;28;20032;-61
2023/05/28 05:12:37;;;;;;;4.07;3.40;;;;;;;;;;5092240;28;20024;-60
2023/05/28 05:15:04;;;;;;;3.20;2.90;;;;;;;;;;5092235;28;20024;-60
2023/05/28 05:17:30;;;;;;;3.50;3.20;;;;;;;;;;5092235;28;20099;-60
2023/05/28 05:19:56;;;;;;;4.82;3.30;;;;;;;;;;5092472;28;20070;-60
2023/05/28 05:22:22;;;;;;;4.97;3.30;;;;;;;;;;5091997;28;20493;-60
2023/05/28 05:24:48;;;;;;;6.38;3.55;;;;;;;;;;5092195;28;20034;-60
2023/05/28 05:27:13;;;;;;;3.88;2.97;;;;;;;;;;5092053;28;20025;-60
2023/05/28 05:29:39;;;;;;;4.20;3.22;;;;;;;;;;5092112;28;20035;-60
2023/05/28 05:32:06;;;;;;;3.53;3.10;;;;;;;;;;5092315;28;20032;-63
2023/05/28 05:34:31;;;;;;;3.63;3.25;;;;;;;;;;5092029;28;20030;-61
2023/05/28 05:36:58;;;;;;;3.75;2.92;;;;;;;;;;5107784;28;20114;-60
2023/05/28 05:39:24;;;;;;;3.50;3.20;;;;;;;;;;5091784;28;20048;-60
2023/05/28 05:41:50;;;;;;;3.60;3.22;;;;;;;;;;5091976;28;20027;-60
2023/05/28 05:44:15;;;;;;;3.45;3.15;;;;;;;;;;5092303;28;20035;-60
2023/05/28 05:46:41;;;;;;;3.65;3.25;;;;;;;;;;5094427;28;20360;-60
2023/05/28 05:49:08;;;;;;;3.63;3.30;;;;;;;;;;5095836;28;20028;-60
2023/05/28 05:51:33;;;;;;;3.70;3.40;;;;;;;;;;5095452;28;20048;-60
2023/05/28 05:53:59;;;;;;;3.72;3.10;;;;;;;;;;5095689;28;20036;-60
2023/05/28 05:56:25;;;;;;;4.68;2.95;;;;;;;;;;5095424;28;20051;-60
2023/05/28 05:58:51;;;;;;;3.22;2.85;;;;;;;;;;5095322;28;20475;-60
2023/05/28 06:01:17;;;;;;;4.70;3.17;;;;;;;;;;5095338;28;20028;-60
2023/05/28 06:03:42;;;;;;;3.88;3.35;;;;;;;;;;5095326;28;20073;-60
2023/05/28 06:06:08;;;;;;;3.30;3.00;;;;;;;;;;5095285;28;20110;-60
2023/05/28 06:08:35;;;;;;;3.72;2.75;;;;;;;;;;5095120;28;20027;-60
2023/05/28 06:11:00;;;;;;;5.03;3.30;;;;;;;;;;5095577;28;20020;-60
2023/05/28 06:13:26;;;;;;;4.90;3.00;;;;;;;;;;5095069;28;20497;-60
2023/05/28 06:15:52;;;;;;;3.33;3.03;;;;;;;;;;5095397;28;20031;-61
2023/05/28 06:18:17;;;;;;;3.53;3.20;;;;;;;;;;5094934;28;20479;-63
2023/05/28 06:20:43;;;;;;;4.38;3.05;;;;;;;;;;5095295;28;20031;-63
2023/05/28 06:23:09;;;;;;;4.75;3.10;;;;;;;;;;5095156;28;20026;-63
2023/05/28 06:25:35;;;;;;;4.15;3.25;;;;;;;;;;5093247;28;20456;-61
2023/05/28 06:28:01;;;;;;;3.28;2.90;;;;;;;;;;5093445;28;20042;-63
2023/05/28 06:30:27;;;;;;;3.70;3.13;;;;;;;;;;5093347;28;20063;-63
2023/05/28 06:32:53;;;;;;;3.13;2.83;;;;;;;;;;5091574;28;20052;-60
2023/05/28 06:35:18;;;;;;;3.65;2.97;;;;;;;;;;5093181;28;20078;-60
2023/05/28 06:37:44;;;;;;;3.75;3.15;;;;;;;;;;5092730;28;20055;-60
2023/05/28 06:40:10;;;;;;;3.30;3.00;;;;;;;;;;5093280;28;20020;-60
2023/05/28 06:42:39;;;;;;;3.92;3.25;;;;;;;;;;5093025;28;20020;-60
2023/05/28 06:45:06;;;;;;;3.50;2.88;;;;;;;;;;5093385;28;20051;-60
2023/05/28 06:47:32;;;;;;;3.65;2.97;;;;;;;;;;5094098;28;20520;-63
2023/05/28 06:49:57;;;;;;;3.88;3.08;;;;;;;;;;5094471;28;20111;-63
2023/05/28 06:52:23;;;;;;;4.70;3.05;;;;;;;;;;5094633;28;20023;-63
2023/05/28 06:54:49;;;;;;;3.72;3.20;;;;;;;;;;5094389;28;20024;-63
2023/05/28 06:57:15;;;;;;;5.53;3.05;;;;;;;;;;5094342;28;20073;-64
2023/05/28 06:59:41;;;;;;;3.90;2.97;;;;;;;;;;5092991;28;20119;-64
2023/05/28 07:02:06;;;;;;;3.45;3.15;;;;;;;;;;5094177;28;20506;-63
2023/05/28 07:04:32;;;;;;;4.10;2.85;;;;;;;;;;5094456;28;20020;-60
2023/05/28 07:06:57;;;;;;;3.55;3.10;;;;;;;;;;5094078;28;20016;-60
2023/05/28 07:09:23;;;;;;;3.20;2.90;;;;;;;;;;5094377;28;20059;-60
2023/05/28 07:11:48;;;;;;;3.33;2.90;;;;;;;;;;5094022;28;20019;-60
2023/05/28 07:14:14;;;;;;;3.63;2.75;;;;;;;;;;5093957;28;20102;-60
2023/05/28 07:16:39;;;;;;;5.75;3.10;;;;;;;;;;5093873;28;20119;-60
2023/05/28 07:19:05;;;;;;;3.47;3.10;;;;;;;;;;5092671;28;20035;-63
2023/05/28 07:21:32;;;;;;;3.92;3.20;;;;;;;;;;5093757;28;20438;-62
2023/05/28 07:23:57;;;;;;;3.10;2.80;;;;;;;;;;5092529;28;20031;-63
2023/05/28 07:26:23;;;;;;;3.05;2.75;;;;;;;;;;5093575;28;20402;-62
2023/05/28 07:28:48;;;;;;;4.03;3.30;;;;;;;;;;5093760;28;20020;-62
2023/05/28 07:31:14;;;;;;;3.92;3.10;;;;;;;;;;5093936;28;20102;-63
2023/05/28 07:33:40;;;;;;;3.20;2.90;;;;;;;;;;5093859;28;20123;-62
2023/05/28 07:36:06;;;;;;;3.28;2.97;;;;;;;;;;5093558;28;20418;-62
2023/05/28 07:38:32;;;;;;;4.68;3.08;;;;;;;;;;5093399;28;20052;-63
2023/05/28 07:40:57;;;;;;;4.13;3.20;;;;;;;;;;5093430;28;20387;-63
2023/05/28 07:43:23;;;;;;;4.10;2.70;;;;;;;;;;5093701;28;20035;-63
2023/05/28 07:45:48;;;;;;;3.25;2.95;;;;;;;;;;5093346;28;20581;-63
2023/05/28 07:48:14;;;;;;;3.20;2.90;;;;;;;;;;5093329;28;20024;-60
2023/05/28 07:50:41;;;;;;;5.15;2.78;;;;;;;;;;5093254;28;20119;-60
2023/05/28 07:53:06;;;;;;;4.25;3.33;;;;;;;;;;5093232;28;20498;-60
2023/05/28 07:55:32;;;;;;;3.17;2.90;;;;;;;;;;5093177;28;20016;-60
2023/05/28 07:57:58;;;;;;;3.13;2.80;;;;;;;;;;5093136;28;20028;-61
2023/05/28 08:00:26;;;;;;;3.70;2.97;;;;;;;;;;5092997;28;20030;-60
2023/05/28 08:02:52;;;;;;;3.38;3.08;;;;;;;;;;5093572;28;20387;-59
2023/05/28 08:05:18;;;;;;;3.17;2.88;;;;;;;;;;5092934;28;20026;-62
2023/05/28 08:07:44;;;;;;;4.15;2.67;;;;;;;;;;5093118;28;20102;-63
2023/05/28 08:10:10;;;;;;;4.68;3.83;;;;;;;;;;5092889;28;20024;-63
2023/05/28 08:12:36;;;;;;;3.95;3.00;;;;;;;;;;5093126;28;20353;-64
2023/05/28 08:15:01;;;;;;;3.25;2.88;;;;;;;;;;5092796;28;20020;-63
2023/05/28 08:17:30;;;;;;;4.80;2.95;;;;;;;;;;5092753;28;20028;-64
2023/05/28 08:19:55;;;;;;;4.25;3.17;;;;;;;;;;5092658;28;20059;-63
2023/05/28 08:22:21;;;;;;;3.17;2.80;;;;;;;;;;5092704;28;20063;-60
2023/05/28 08:24:46;;;;;;;3.22;2.80;;;;;;;;;;5092830;28;20024;-63
2023/05/28 08:27:12;;;;;;;4.30;3.08;;;;;;;;;;5086760;28;20044;-64
2023/05/28 08:29:37;;;;;;;3.10;2.72;;;;;;;;;;5088135;28;20020;-61
2023/05/28 08:32:04;;;;;;;3.17;2.88;;;;;;;;;;5087691;28;20055;-64
2023/05/28 08:34:29;;;;;;;2.95;2.70;;;;;;;;;;5087699;28;20023;-63
2023/05/28 08:36:55;;;;;;;3.47;2.95;;;;;;;;;;5088027;28;20031;-64
2023/05/28 08:39:23;;;;;;;3.22;2.83;;;;;;;;;;5088245;28;20056;-64
2023/05/28 08:41:49;;;;;;;3.30;2.92;;;;;;;;;;5090807;28;20092;-63
2023/05/28 08:44:15;;;;;;;3.13;2.80;;;;;;;;;;5091343;28;20550;-64
2023/05/28 08:46:41;;;;;;;3.28;2.70;;;;;;;;;;5090322;28;20360;-64
2023/05/28 08:49:08;;;;;;;2.75;2.55;;;;;;;;;;5091459;28;20028;-63
2023/05/28 08:51:36;;;;;;;2.85;2.65;;;;;;;;;;5090676;28;20483;-62
2023/05/28 08:54:02;;;;;;;3.25;2.95;;;;;;;;;;5072467;28;20029;-63
2023/05/28 08:56:28;;;;;;;3.30;3.00;;;;;;;;;;5072221;28;20543;-63
2023/05/28 08:58:54;;;;;;;4.15;3.10;;;;;;;;;;5072258;28;20162;-64
2023/05/28 09:01:20;;;;;;;3.38;2.78;;;;;;;;;;5072003;28;20028;-64
2023/05/28 09:03:45;;;;;;;2.92;2.63;;;;;;;;;;5071185;28;20024;-64
2023/05/28 09:06:12;;;;;;;6.60;3.38;;;;;;;;;;5073246;28;20032;-66
2023/05/28 09:08:38;;;;;;;4.18;3.17;;;;;;;;;;5068061;28;20035;-61
2023/05/28 09:11:14;;;;;;;4.97;3.22;;;;;;;;;;5071835;28;20024;-64
2023/05/28 09:13:44;;;;;;;7.68;3.53;;;;;;;;;;5089895;28;20469;-61
2023/05/28 09:16:10;;;;;;;4.63;3.65;;;;;;;;;;5092327;28;20024;-60
2023/05/28 09:18:36;;;;;;;11.05;3.45;;;;;;;;;;5091952;28;20055;-64
2023/05/28 09:21:08;;;;;;;5.80;3.60;;;;;;;;;;5093711;28;20062;-63
2023/05/28 09:23:34;;;;;;;6.50;3.95;;;;;;;;;;5096283;28;20039;-60
2023/05/28 09:26:02;;;;;;;5.25;3.88;;;;;;;;;;5096084;28;20039;-64
2023/05/28 09:28:28;;;;;;;5.30;3.50;;;;;;;;;;5095878;28;20525;-65
2023/05/28 09:31:02;;;;;;;5.45;3.85;;;;;;;;;;5096025;28;20032;-65
2023/05/28 09:33:28;;;;;;;7.80;4.25;;;;;;;;;;5095048;28;20077;-66
2023/05/28 09:36:01;;;;;;;6.93;3.85;;;;;;;;;;5094476;28;20020;-62
2023/05/28 09:38:27;;;;;;;9.32;3.92;;;;;;;;;;5095190;28;20469;-61
2023/05/28 09:40:55;;;;;;;6.15;3.85;;;;;;;;;;5095619;28;20031;-60
2023/05/28 09:43:30;;;;;;;10.93;3.90;;;;;;;;;;5096005;28;20078;-60
2023/05/28 09:46:09;;;;;;;8.18;3.90;;;;;;;;;;5095898;28;20057;-66
2023/05/28 09:48:35;;;;;;;4.75;3.80;;;;;;;;;;5095643;28;20024;-65
2023/05/28 09:51:03;;;;;;;10.55;3.90;;;;;;;;;;5095534;28;20024;-66
2023/05/28 09:53:33;;;;;;;8.70;4.18;;;;;;;;;;5095408;28;20020;-65
2023/05/28 09:55:59;;;;;;;11.05;3.88;;;;;;;;;;5095363;28;20467;-66
2023/05/28 09:58:34;;;;;;;5.78;3.35;;;;;;;;;;5095072;28;20119;-61
2023/05/28 10:01:07;;;;;;;8.90;3.95;;;;;;;;;;5095328;28;20036;-65
2023/05/28 10:03:44;;;;;;;7.93;4.00;;;;;;;;;;5095282;28;20020;-65
2023/05/28 10:06:23;;;;;;;6.03;3.85;;;;;;;;;;5095135;28;20028;-61
2023/05/28 10:08:54;;;;;;;4.97;3.97;;;;;;;;;;5095180;28;20066;-61
2023/05/28 10:11:28;;;;;;;6.63;4.00;;;;;;;;;;5095381;28;20035;-64
2023/05/28 10:13:57;;;;;;;6.28;3.78;;;;;;;;;;5095064;28;20095;-61
2023/05/28 10:16:25;;;;;;;10.80;3.92;;;;;;;;;;5094816;28;20579;-64
2023/05/28 10:18:51;;;;;;;8.50;4.10;;;;;;;;;;5094816;28;20043;-60
2023/05/28 10:21:19;;;;;;;5.20;3.63;;;;;;;;;;5095123;28;20028;-66
2023/05/28 10:23:46;;;;;;;7.28;3.95;;;;;;;;;;5094969;28;20016;-63
2023/05/28 10:26:14;;;;;;;5.47;3.72;;;;;;;;;;5094717;28;20119;-65
2023/05/28 10:28:40;;;;;;;6.32;3.90;;;;;;;;;;5094864;28;20024;-61
2023/05/28 10:31:07;;;;;;;6.75;4.22;;;;;;;;;;5094455;28;20024;-64
2023/05/28 10:33:43;;;;;;;6.93;4.03;;;;;;;;;;5095044;28;20486;-62
2023/05/28 10:36:11;;;;;;;6.70;4.10;;;;;;;;;;5095003;28;20489;-61
2023/05/28 10:38:59;;;;;;;6.07;3.88;;;;;;;;;;5094242;28;20445;-60
2023/05/28 10:41:25;;;;;;;6.85;3.90;;;;;;;;;;5094595;28;20082;-63
2023/05/28 10:43:51;;;;;;;5.20;3.92;;;;;;;;;;5095174;28;20114;-70
2023/05/28 10:46:23;;;;;;;7.97;4.85;;;;;;;;;;5094502;28;20028;-62
2023/05/28 10:49:15;;;;;;;7.55;4.00;;;;;;;;;;5094673;28;20027;-67
2023/05/28 10:52:00;;;;;;;9.40;4.80;;;;;;;;;;5094419;28;20594;-60
2023/05/28 10:54:52;;;;;;;7.63;3.67;;;;;;;;;;5094279;28;20035;-66
2023/05/28 10:57:20;;;;;;;7.70;4.45;;;;;;;;;;5094261;28;20495;-70
2023/05/28 11:00:13;;;;;;;7.80;3.78;;;;;;;;;;5094087;28;20028;-65
2023/05/28 11:02:39;;;;;;;5.90;3.90;;;;;;;;;;5093919;28;20028;-61
2023/05/28 11:05:05;;;;;;;5.60;3.97;;;;;;;;;;5092746;28;20028;-61
2023/05/28 11:07:36;;;;;;;10.38;4.50;;;;;;;;;;5092340;28;20531;-63
2023/05/28 11:10:05;;;;;;;14.73;4.20;;;;;;;;;;5092177;28;20028;-60
2023/05/28 11:12:34;;;;;;;5.70;4.10;;;;;;;;;;5092317;28;20032;-64
2023/05/28 11:14:59;;;;;;;6.82;4.70;;;;;;;;;;5092548;28;20024;-64
2023/05/28 11:17:25;;;;;;;5.75;4.00;;;;;;;;;;5092583;28;20141;-62
2023/05/28 11:19:53;;;;;;;11.23;4.93;;;;;;;;;;5092214;28;20047;-66
2023/05/28 11:22:19;;;;;;;8.27;4.25;;;;;;;;;;5092329;28;20502;-68
2023/05/28 11:24:55;;;;;;;8.15;4.47;;;;;;;;;;5092319;28;20028;-62
2023/05/28 11:27:24;;;;;;;6.45;4.20;;;;;;;;;;5092558;28;20387;-63
2023/05/28 11:29:53;;;;;;;8.95;4.15;;;;;;;;;;5092007;28;20024;-62
2023/05/28 11:32:22;;;;;;;7.70;3.90;;;;;;;;;;5091975;28;20506;-65
2023/05/28 11:34:49;;;;;;;11.13;4.40;;;;;;;;;;5092015;28;20036;-61
2023/05/28 11:37:15;;;;;;;7.03;4.57;;;;;;;;;;5091344;28;20074;-62
2023/05/28 11:39:54;;;;;;;10.13;4.57;;;;;;;;;;5092104;28;20418;-62
2023/05/28 11:42:21;;;;;;;6.22;3.95;;;;;;;;;;5092027;28;20024;-62
2023/05/28 11:44:48;;;;;;;6.15;4.57;;;;;;;;;;5091111;28;20086;-62
2023/05/28 11:47:13;;;;;;;5.80;4.38;;;;;;;;;;5091664;28;20120;-69
2023/05/28 11:49:40;;;;;;;8.02;4.07;;;;;;;;;;5091795;28;20116;-67
2023/05/28 11:52:16;;;;;;;6.80;4.20;;;;;;;;;;5091502;28;20028;-64
2023/05/28 11:54:44;;;;;;;6.03;4.20;;;;;;;;;;5091667;28;20089;-63
2023/05/28 11:57:11;;;;;;;6.38;4.38;;;;;;;;;;5091383;28;20099;-64
2023/05/28 11:59:37;;;;;;;9.60;4.28;;;;;;;;;;5091355;28;20127;-64
2023/05/28 12:02:15;;;;;;;5.82;4.20;;;;;;;;;;5091469;28;20486;-61
2023/05/28 12:05:01;;;;;;;8.07;4.30;;;;;;;;;;5091336;28;20035;-62
2023/05/28 12:07:31;;;;;;;6.60;4.70;;;;;;;;;;5091284;28;20116;-62
2023/05/28 12:10:11;;;;;;;6.10;4.10;;;;;;;;;;5091460;28;20024;-61
2023/05/28 12:12:44;;;;;;;;;;;;;;;;;;5091797;28;20032;-61
2023/05/28 12:15:10;;;;;;;6.35;4.07;;;;;;;;;;5091136;28;20398;-68
2023/05/28 12:17:42;;;;;;;5.80;4.20;;;;;;;;;;5091543;28;20028;-62
2023/05/28 12:20:13;;;;;;;5.97;4.20;;;;;;;;;;5091120;28;20051;-61
2023/05/28 12:22:39;;;;;;;8.85;4.20;;;;;;;;;;5091507;28;20386;-67
2023/05/28 12:25:06;;;;;;;5.47;3.92;;;;;;;;;;5091390;28;20438;-61
2023/05/28 12:27:32;;;;;;;9.07;4.50;;;;;;;;;;5091047;28;20036;-61
2023/05/28 12:29:58;;;;;;;8.60;4.47;;;;;;;;;;5091390;28;20115;-62
2023/05/28 12:32:24;;;;;;;4.97;4.00;;;;;;;;;;5091372;28;20024;-62
2023/05/28 12:34:51;;;;;;;8.55;4.53;;;;;;;;;;5090986;28;20028;-61
2023/05/28 12:37:17;;;;;;;5.60;4.53;;;;;;;;;;5090788;28;20061;-61
2023/05/28 12:39:43;;;;;;;7.68;4.00;;;;;;;;;;5090900;28;20020;-66
2023/05/28 12:42:09;;;;;;;6.45;3.92;;;;;;;;;;5091181;28;20032;-62
2023/05/28 12:44:34;;;;;;;13.10;4.60;;;;;;;;;;5090923;28;20028;-62
2023/05/28 12:47:00;;;;;;;6.95;4.13;;;;;;;;;;5090861;28;20127;-64
2023/05/28 12:49:25;;;;;;;10.32;3.88;;;;;;;;;;5090914;28;20264;-63
2023/05/28 12:51:51;;;;;;;7.00;4.47;;;;;;;;;;5090752;28;20024;-62
2023/05/28 12:54:16;;;;;;;9.75;4.60;;;;;;;;;;5091266;28;20093;-64
2023/05/28 12:56:42;;;;;;;5.95;3.83;;;;;;;;;;5094951;28;20118;-61
2023/05/28 12:59:10;;;;;;;7.30;4.03;;;;;;;;;;5094934;28;20071;-67
2023/05/28 13:01:35;;;;;;;5.97;3.92;;;;;;;;;;5095189;28;20043;-69
2023/05/28 13:04:01;;;;;;;8.05;4.45;;;;;;;;;;5094900;28;20487;-66
2023/05/28 13:06:27;;;;;;;8.27;4.65;;;;;;;;;;5094726;28;20438;-62
2023/05/28 13:08:53;;;;;;;5.00;4.30;;;;;;;;;;5094790;28;20479;-64
2023/05/28 13:11:18;;;;;;;5.13;4.05;;;;;;;;;;5094522;28;20024;-66
2023/05/28 13:13:44;;;;;;;6.18;4.55;;;;;;;;;;5094620;28;20024;-62
2023/05/28 13:16:10;;;;;;;6.47;4.50;;;;;;;;;;5094529;28;20068;-63
2023/05/28 13:18:35;;;;;;;8.15;4.60;;;;;;;;;;5094591;28;20039;-71
2023/05/28 13:21:01;;;;;;;6.00;4.88;;;;;;;;;;5094564;28;20107;-61
2023/05/28 13:23:26;;;;;;;6.18;4.60;;;;;;;;;;5094520;28;20412;-61
2023/05/28 13:25:52;;;;;;;5.70;4.55;;;;;;;;;;5094574;28;20031;-61
2023/05/28 13:28:19;;;;;;;8.48;4.70;;;;;;;;;;5094495;28;20372;-61
2023/05/28 13:30:45;;;;;;;8.02;4.95;;;;;;;;;;5094333;28;20129;-65
2023/05/28 13:33:10;;;;;;;6.32;4.88;;;;;;;;;;5094324;28;20076;-63
2023/05/28 13:35:36;;;;;;;7.97;4.80;;;;;;;;;;5094396;28;20028;-64
2023/05/28 13:38:02;;;;;;;9.55;4.80;;;;;;;;;;5093913;28;20139;-66
2023/05/28 13:40:29;;;;;;;5.97;4.78;;;;;;;;;;5093862;28;20024;-61
2023/05/28 13:42:55;;;;;;;6.43;4.65;;;;;;;;;;5094488;28;20051;-66
2023/05/28 13:45:20;;;;;;;8.15;4.90;;;;;;;;;;5094250;28;20562;-67
2023/05/28 13:47:47;;;;;;;5.72;4.57;;;;;;;;;;5094374;28;20429;-61
2023/05/28 13:50:14;;;;;;;13.02;4.85;;;;;;;;;;5094047;28;20043;-62
2023/05/28 13:52:40;;;;;;;8.70;4.97;;;;;;;;;;5093888;28;20032;-67
2023/05/28 13:55:06;;;;;;;6.28;4.82;;;;;;;;;;5094050;28;20120;-63
2023/05/28 13:57:31;;;;;;;7.50;5.07;;;;;;;;;;5092310;28;20028;-69
2023/05/28 13:59:57;;;;;;;7.10;4.70;;;;;;;;;;5093692;28;20028;-61
2023/05/28 14:02:22;;;;;;;6.55;4.97;;;;;;;;;;5093990;28;20028;-61
2023/05/28 14:04:48;;;;;;;7.65;4.93;;;;;;;;;;5093521;28;20058;-61
2023/05/28 14:07:13;;;;;;;5.80;5.20;;;;;;;;;;5093159;28;20059;-64
2023/05/28 14:09:39;;;;;;;7.18;5.22;;;;;;;;;;5093654;28;20023;-61
2023/05/28 14:12:05;;;;;;;8.88;5.40;;;;;;;;;;5093854;28;20060;-65
2023/05/28 14:14:31;;;;;;;9.75;4.85;;;;;;;;;;5093415;28;20085;-63
2023/05/28 14:16:56;;;;;;;7.65;4.80;;;;;;;;;;5093374;28;20023;-63
2023/05/28 14:19:22;;;;;;;9.85;5.05;;;;;;;;;;5095166;28;20020;-61
2023/05/28 14:21:48;;;;;;;11.40;5.30;;;;;;;;;;5095256;28;20028;-62
2023/05/28 14:24:13;;;;;;;5.88;4.93;;;;;;;;;;5094942;28;20031;-66
2023/05/28 14:26:39;;;;;;;7.68;4.80;;;;;;;;;;5093463;28;20028;-64
2023/05/28 14:29:04;;;;;;;7.53;5.28;;;;;;;;;;5091723;28;20020;-62
2023/05/28 14:31:30;;;;;;;8.90;5.15;;;;;;;;;;5093558;28;20430;-63
2023/05/28 14:33:55;;;;;;;14.60;5.25;;;;;;;;;;5093507;28;20020;-62
2023/05/28 14:36:21;;;;;;;7.25;5.30;;;;;;;;;;5094534;28;20463;-62
2023/05/28 14:38:46;;;;;;;9.65;5.07;;;;;;;;;;5092705;28;20513;-62
2023/05/28 14:41:12;;;;;;;7.43;4.78;;;;;;;;;;5093142;28;20016;-62